Terminal Aerodrome Forecast
Issued by NWS

Home | Current Version | Previous Version | Text Only | Print | Product List | Glossary On
Versions: 1 2 3 4 5 6 7 8 9 10 11 12 13 14 15 16 17 18 19 20 21 22 23 24 25 26 27 28 29 30 31 32 33 34 35 36 37 38 39 40 41
000
FTUS43 KOAX 251734
TAFSNY
TAF
KSNY 251734Z 2518/2618 32012KT P6SM -RA SCT025 BKN035
      TEMPO 2518/2521 4SM -RA BR BKN025
     FM252100 33015KT P6SM VCSH BKN035
     FM260200 30005KT P6SM BKN050
     FM261200 33006KT P6SM OVC025=

USA.gov is the U.S. government's official web portal to all federal, state and local government web resources and services.